Time;durP1;ratioP1;P1;durP2;ratioP2;P2;SDS_P1;SDS_P2;PMS_P1;PMS_P2;Temp;Humidity;BMP_temperature;BMP_pressure;BME280_temperature;BME280_humidity;BME280_pressure;Samples;Min_cycle;Max_cycle;Signal;HPM_P1;HPM_P2
2021/08/28 00:01:22;;;;;;;2.40;2.20;;;17.40;99.90;;;;;;4965259;28;20190;-63
2021/08/28 00:03:47;;;;;;;3.90;3.57;;;17.40;99.90;;;;;;4964401;28;20190;-63
2021/08/28 00:06:13;;;;;;;3.20;2.33;;;17.30;99.90;;;;;;4962125;28;20968;-63
2021/08/28 00:08:38;;;;;;;3.93;2.57;;;17.30;99.90;;;;;;4964967;28;20226;-63
2021/08/28 00:11:04;;;;;;;2.40;2.20;;;17.30;99.90;;;;;;4967530;28;20561;-63
2021/08/28 00:13:30;;;;;;;2.23;2.03;;;17.40;99.90;;;;;;4961533;28;20690;-63
2021/08/28 00:15:56;;;;;;;3.90;2.47;;;17.50;99.90;;;;;;4963035;28;20471;-63
2021/08/28 00:18:22;;;;;;;2.67;2.10;;;17.70;99.90;;;;;;4967467;28;20462;-63
2021/08/28 00:20:48;;;;;;;2.43;2.23;;;17.60;99.90;;;;;;4963436;28;20190;-63
2021/08/28 00:23:14;;;;;;;3.40;2.37;;;17.60;99.90;;;;;;4965322;28;20465;-63
2021/08/28 00:25:40;;;;;;;2.80;2.60;;;17.80;99.90;;;;;;4945342;28;20199;-63
2021/08/28 00:28:06;;;;;;;4.17;2.70;;;17.80;99.90;;;;;;4944892;28;20556;-63
2021/08/28 00:30:31;;;;;;;2.47;2.20;;;17.90;99.90;;;;;;4948529;28;20609;-63
2021/08/28 00:33:11;;;;;;;3.00;2.47;;;18.10;99.90;;;;;;4966180;28;20669;-63
2021/08/28 00:35:36;;;;;;;2.53;2.33;;;18.10;99.90;;;;;;4961729;28;20297;-63
2021/08/28 00:38:02;;;;;;;5.20;2.47;;;18.10;99.90;;;;;;4966734;28;20454;-63
2021/08/28 00:40:28;;;;;;;2.90;2.60;;;18.10;99.90;;;;;;4948127;28;20194;-63
2021/08/28 00:42:53;;;;;;;3.67;2.60;;;17.80;99.90;;;;;;4963752;28;20234;-63
2021/08/28 00:45:24;;;;;;;2.57;2.37;;;17.80;99.90;;;;;;4966797;28;20211;-63
2021/08/28 00:48:00;;;;;;;3.20;2.33;;;17.60;99.90;;;;;;4964790;28;20233;-63
2021/08/28 00:50:26;;;;;;;3.23;2.50;;;17.50;99.90;;;;;;4963996;28;20442;-62
2021/08/28 00:52:53;;;;;;;3.53;2.37;;;17.70;99.90;;;;;;4965120;28;20936;-63
2021/08/28 00:55:19;;;;;;;4.13;2.47;;;17.60;99.90;;;;;;4963238;28;20481;-62
2021/08/28 00:57:45;;;;;;;3.03;2.30;;;17.50;99.90;;;;;;4964285;28;21032;-62
2021/08/28 01:00:11;;;;;;;6.17;2.70;;;17.60;99.90;;;;;;4964356;28;20537;-62
2021/08/28 01:02:42;;;;;;;3.23;2.50;;;17.70;99.90;;;;;;4963023;28;20206;-63
2021/08/28 01:05:22;;;;;;;3.73;2.50;;;17.80;99.90;;;;;;4965520;28;20438;-62
2021/08/28 01:07:58;;;;;;;4.43;2.70;;;17.70;99.90;;;;;;4964117;28;20465;-62
2021/08/28 01:10:28;;;;;;;2.73;2.40;;;17.80;99.90;;;;;;4962263;28;20500;-63
2021/08/28 01:12:57;;;;;;;3.00;2.60;;;17.80;99.90;;;;;;4966898;28;20450;-62
2021/08/28 01:15:24;;;;;;;3.30;2.20;;;17.80;99.90;;;;;;4962634;28;20485;-63
2021/08/28 01:17:51;;;;;;;5.47;3.20;;;17.80;99.90;;;;;;4962517;28;21014;-62
2021/08/28 01:20:34;;;;;;;3.20;2.00;;;17.70;99.90;;;;;;4948817;28;20470;-63
2021/08/28 01:23:01;;;;;;;3.23;2.30;;;17.80;99.90;;;;;;4962646;28;20952;-63
2021/08/28 01:25:31;;;;;;;4.10;2.60;;;17.70;99.90;;;;;;4965727;28;20640;-63
2021/08/28 01:28:01;;;;;;;3.07;2.20;;;17.60;99.90;;;;;;4962726;28;20552;-63
2021/08/28 01:30:27;;;;;;;2.50;2.30;;;17.60;99.90;;;;;;4962220;28;20430;-63
2021/08/28 01:32:53;;;;;;;2.60;2.37;;;17.30;99.90;;;;;;4964816;28;20450;-63
2021/08/28 01:35:21;;;;;;;4.07;3.00;;;17.30;99.90;;;;;;4937391;28;20568;-64
2021/08/28 01:37:48;;;;;;;3.30;2.60;;;17.10;99.90;;;;;;4943895;28;20459;-63
2021/08/28 01:40:15;;;;;;;3.53;2.80;;;17.10;99.90;;;;;;4966576;28;20567;-63
2021/08/28 01:42:42;;;;;;;3.50;2.73;;;17.00;99.90;;;;;;4963540;28;20821;-62
2021/08/28 01:45:11;;;;;;;2.90;2.70;;;17.10;99.90;;;;;;4959656;28;20450;-62
2021/08/28 01:47:39;;;;;;;3.23;2.70;;;17.10;99.90;;;;;;4963636;28;20560;-63
2021/08/28 01:50:07;;;;;;;3.00;2.70;;;17.10;99.90;;;;;;4964329;28;20452;-63
2021/08/28 01:52:33;;;;;;;3.27;2.50;;;17.10;99.90;;;;;;4945425;28;20454;-63
2021/08/28 01:54:59;;;;;;;2.70;2.50;;;17.10;99.90;;;;;;4964584;28;20496;-63
2021/08/28 01:57:25;;;;;;;3.40;2.60;;;16.90;99.90;;;;;;4946230;28;20203;-63
2021/08/28 01:59:51;;;;;;;4.37;3.17;;;16.90;99.90;;;;;;4963747;28;20916;-63
2021/08/28 02:02:17;;;;;;;6.53;2.93;;;16.80;99.90;;;;;;4945857;28;20459;-63
2021/08/28 02:04:44;;;;;;;5.77;3.63;;;16.80;99.90;;;;;;4947157;28;20198;-63
2021/08/28 02:07:12;;;;;;;4.53;2.90;;;16.70;99.90;;;;;;4964904;28;20481;-63
2021/08/28 02:10:07;;;;;;;2.83;2.63;;;16.70;99.90;;;;;;4944577;28;20449;-63
2021/08/28 02:12:43;;;;;;;3.90;2.87;;;16.60;99.90;;;;;;4964285;28;20434;-63
2021/08/28 02:15:18;;;;;;;3.97;3.50;;;16.60;99.90;;;;;;4966144;28;20465;-63
2021/08/28 02:18:09;;;;;;;3.50;3.20;;;16.60;99.90;;;;;;4943182;28;20467;-63
2021/08/28 02:20:41;;;;;;;3.93;2.83;;;16.70;99.90;;;;;;4960395;28;20572;-63
2021/08/28 02:23:14;;;;;;;3.30;3.00;;;16.90;99.90;;;;;;4946611;28;20441;-63
2021/08/28 02:25:51;;;;;;;4.90;3.53;;;16.80;99.90;;;;;;4945232;28;20449;-63
2021/08/28 02:28:26;;;;;;;4.00;3.40;;;16.80;99.90;;;;;;4938554;28;21003;-64
2021/08/28 02:30:53;;;;;;;4.40;3.60;;;16.90;99.90;;;;;;4965681;28;20867;-63
2021/08/28 02:33:19;;;;;;;3.40;3.10;;;17.00;99.90;;;;;;4960150;28;20803;-63
2021/08/28 02:35:45;;;;;;;5.53;3.53;;;17.00;99.90;;;;;;4961847;28;20473;-63
2021/08/28 02:38:13;;;;;;;3.60;3.30;;;16.90;99.90;;;;;;4964178;28;20548;-63
2021/08/28 02:40:40;;;;;;;3.93;3.63;;;16.90;99.90;;;;;;4965701;28;20440;-62
2021/08/28 02:43:07;;;;;;;4.10;3.30;;;17.00;99.90;;;;;;4965424;28;20533;-63
2021/08/28 02:45:34;;;;;;;3.00;2.70;;;17.10;99.90;;;;;;4968293;28;20450;-63
2021/08/28 02:48:01;;;;;;;5.00;3.20;;;17.10;99.90;;;;;;4963727;28;20846;-63
2021/08/28 02:50:28;;;;;;;4.33;3.20;;;17.10;99.90;;;;;;4969700;28;20492;-62
2021/08/28 02:52:56;;;;;;;3.77;3.47;;;17.10;99.90;;;;;;4950112;28;22399;-62
2021/08/28 02:55:21;;;;;;;3.70;3.40;;;17.00;99.90;;;;;;4946241;28;20481;-63
2021/08/28 02:57:51;;;;;;;4.40;3.80;;;17.00;99.90;;;;;;4968649;28;20461;-63
2021/08/28 03:00:18;;;;;;;5.73;3.40;;;17.00;99.90;;;;;;4966558;28;20198;-62
2021/08/28 03:02:44;;;;;;;4.37;3.60;;;17.00;99.90;;;;;;4965176;28;20815;-62
2021/08/28 03:05:12;;;;;;;4.83;3.97;;;17.10;99.90;;;;;;4966717;28;20525;-63
2021/08/28 03:07:40;;;;;;;4.40;3.80;;;17.10;99.90;;;;;;4964644;28;20469;-63
2021/08/28 03:10:08;;;;;;;5.27;3.70;;;17.10;99.90;;;;;;4967095;28;21035;-62
2021/08/28 03:12:34;;;;;;;5.03;3.70;;;16.90;99.90;;;;;;4949688;28;20824;-62
2021/08/28 03:14:59;;;;;;;4.30;3.30;;;16.90;99.90;;;;;;4965689;28;20478;-62
2021/08/28 03:17:27;;;;;;;7.10;3.70;;;16.90;99.90;;;;;;4966408;28;20213;-62
2021/08/28 03:19:54;;;;;;;3.90;3.60;;;16.80;99.90;;;;;;4964442;28;20222;-62
2021/08/28 03:22:21;;;;;;;4.80;3.70;;;16.90;99.90;;;;;;4964679;28;20948;-62
2021/08/28 03:24:52;;;;;;;5.53;3.00;;;16.90;99.90;;;;;;4968371;28;20512;-62
2021/08/28 03:27:20;;;;;;;3.73;3.37;;;16.90;99.90;;;;;;4963171;28;20987;-62
2021/08/28 03:29:47;;;;;;;5.17;3.40;;;16.80;99.90;;;;;;4950183;28;21014;-62
2021/08/28 03:32:14;;;;;;;4.67;3.40;;;16.90;99.90;;;;;;4967974;28;20469;-62
2021/08/28 03:34:40;;;;;;;4.40;3.53;;;17.00;99.90;;;;;;4962663;28;20861;-62
2021/08/28 03:37:07;;;;;;;4.80;3.80;;;16.80;99.90;;;;;;4966928;28;20462;-62
2021/08/28 03:39:33;;;;;;;4.80;3.30;;;16.80;99.90;;;;;;4966958;28;20245;-63
2021/08/28 03:41:58;;;;;;;4.80;4.10;;;16.90;99.90;;;;;;4967746;28;20463;-62
2021/08/28 03:44:24;;;;;;;5.97;4.30;;;16.80;99.90;;;;;;4968117;28;20202;-62
2021/08/28 03:46:50;;;;;;;4.37;3.97;;;16.80;99.90;;;;;;4947414;28;20209;-62
2021/08/28 03:49:16;;;;;;;4.93;3.60;;;16.60;99.90;;;;;;4965782;28;20202;-63
2021/08/28 03:51:42;;;;;;;4.73;4.00;;;16.60;99.90;;;;;;4966301;28;20438;-62
2021/08/28 03:54:08;;;;;;;5.33;3.70;;;16.40;99.90;;;;;;4961928;28;20196;-62
2021/08/28 03:56:35;;;;;;;4.97;3.90;;;16.40;99.90;;;;;;4964664;28;20489;-63
2021/08/28 03:59:00;;;;;;;4.80;4.40;;;16.40;99.90;;;;;;4963887;28;20223;-62
2021/08/28 04:01:26;;;;;;;7.10;4.03;;;16.50;99.90;;;;;;4963655;28;20485;-62
2021/08/28 04:03:52;;;;;;;3.83;3.53;;;16.40;99.90;;;;;;4966041;28;20187;-62
2021/08/28 04:06:18;;;;;;;5.30;4.07;;;16.40;99.90;;;;;;4963243;28;20836;-62
2021/08/28 04:08:47;;;;;;;5.67;4.07;;;16.40;99.90;;;;;;4969715;28;20485;-63
2021/08/28 04:11:13;;;;;;;6.60;3.80;;;16.40;99.90;;;;;;4966901;28;20231;-62
2021/08/28 04:13:39;;;;;;;7.97;4.43;;;16.40;99.90;;;;;;4963476;28;20442;-62
2021/08/28 04:16:05;;;;;;;5.17;3.93;;;16.40;99.90;;;;;;4966184;28;20466;-62
2021/08/28 04:18:30;;;;;;;4.43;4.03;;;16.30;99.90;;;;;;4963810;28;20202;-62
2021/08/28 04:20:56;;;;;;;4.40;4.00;;;16.30;99.90;;;;;;4964083;28;20195;-62
2021/08/28 04:23:22;;;;;;;4.77;4.30;;;16.40;99.90;;;;;;4966248;28;20190;-62
2021/08/28 04:25:47;;;;;;;6.10;4.80;;;16.40;99.90;;;;;;4962909;28;20680;-62
2021/08/28 04:28:13;;;;;;;5.97;4.27;;;16.50;99.90;;;;;;4964345;28;20228;-62
2021/08/28 04:30:38;;;;;;;5.27;4.23;;;16.40;99.90;;;;;;4968952;28;20203;-62
2021/08/28 04:33:04;;;;;;;7.40;4.37;;;16.40;99.90;;;;;;4961682;28;20203;-62
2021/08/28 04:35:30;;;;;;;4.53;4.17;;;16.50;99.90;;;;;;4965481;28;20217;-62
2021/08/28 04:37:56;;;;;;;7.03;4.67;;;16.60;99.90;;;;;;4965598;28;20512;-62
2021/08/28 04:40:22;;;;;;;4.60;4.20;;;16.50;99.90;;;;;;4947430;28;20186;-62
2021/08/28 04:42:52;;;;;;;5.67;4.80;;;16.70;99.90;;;;;;4965119;28;20445;-62
2021/08/28 04:45:18;;;;;;;5.00;4.30;;;16.60;99.90;;;;;;4963642;28;20564;-62
2021/08/28 04:47:43;;;;;;;5.00;4.10;;;16.60;99.90;;;;;;4965579;28;20535;-62
2021/08/28 04:50:09;;;;;;;4.30;3.90;;;16.70;99.90;;;;;;4967959;28;20201;-62
2021/08/28 04:52:35;;;;;;;6.60;4.43;;;16.70;99.90;;;;;;4962209;28;20204;-62
2021/08/28 04:55:01;;;;;;;7.17;4.37;;;16.60;99.90;;;;;;4944148;28;20940;-62
2021/08/28 04:57:27;;;;;;;4.80;3.90;;;16.60;99.90;;;;;;4962725;28;20465;-62
2021/08/28 04:59:53;;;;;;;5.63;4.40;;;16.60;99.90;;;;;;4965175;28;20518;-62
2021/08/28 05:02:18;;;;;;;5.33;4.00;;;16.50;99.90;;;;;;4965968;28;20199;-63
2021/08/28 05:04:44;;;;;;;4.83;4.30;;;16.50;99.90;;;;;;4963741;28;20543;-62
2021/08/28 05:07:09;;;;;;;5.67;5.17;;;16.60;99.90;;;;;;4964528;28;20298;-63
2021/08/28 05:09:35;;;;;;;8.47;4.43;;;16.50;99.90;;;;;;4964144;28;20186;-62
2021/08/28 05:12:01;;;;;;;4.70;3.90;;;16.60;99.90;;;;;;4961214;28;20191;-62
2021/08/28 05:14:27;;;;;;;5.93;4.73;;;16.60;99.90;;;;;;4964933;28;20456;-62
2021/08/28 05:16:52;;;;;;;4.60;3.97;;;16.50;99.90;;;;;;4961460;28;20587;-62
2021/08/28 05:19:18;;;;;;;4.50;4.10;;;16.60;99.90;;;;;;4944734;28;20205;-62
2021/08/28 05:21:46;;;;;;;5.80;3.93;;;16.50;99.90;;;;;;4964630;28;20186;-62
2021/08/28 05:24:12;;;;;;;4.03;3.63;;;16.60;99.90;;;;;;4964020;28;21716;-62
2021/08/28 05:26:38;;;;;;;5.50;4.17;;;16.70;99.90;;;;;;4962443;28;20462;-62
2021/08/28 05:29:03;;;;;;;5.93;4.70;;;16.60;99.90;;;;;;4963573;28;20445;-62
2021/08/28 05:31:29;;;;;;;5.30;4.00;;;16.60;99.90;;;;;;4960647;28;20202;-62
2021/08/28 05:33:57;;;;;;;5.50;4.37;;;16.40;99.90;;;;;;4964216;28;20252;-63
2021/08/28 05:36:22;;;;;;;5.40;4.13;;;16.40;99.90;;;;;;4944738;28;20720;-63
2021/08/28 05:38:48;;;;;;;5.33;4.27;;;16.50;99.90;;;;;;4948118;28;20508;-62
2021/08/28 05:41:13;;;;;;;9.23;5.40;;;16.50;99.90;;;;;;4965166;28;20186;-63
2021/08/28 05:43:39;;;;;;;6.53;4.73;;;16.60;99.90;;;;;;4962234;28;20261;-63
2021/08/28 05:46:05;;;;;;;5.40;4.40;;;16.60;99.90;;;;;;4965253;28;20701;-64
2021/08/28 05:48:31;;;;;;;4.37;3.97;;;16.70;99.90;;;;;;4948120;28;20628;-63
2021/08/28 05:50:56;;;;;;;4.90;3.90;;;16.70;99.90;;;;;;4962852;28;20458;-63
2021/08/28 05:53:22;;;;;;;5.43;4.77;;;16.60;99.90;;;;;;4963856;28;20191;-62
2021/08/28 05:55:48;;;;;;;6.90;4.40;;;16.40;99.90;;;;;;4964032;28;20226;-62
2021/08/28 05:58:14;;;;;;;5.00;4.50;;;16.30;99.90;;;;;;4961495;28;20215;-62
2021/08/28 06:00:40;;;;;;;5.00;4.37;;;16.60;99.90;;;;;;4928597;28;20555;-62
2021/08/28 06:03:05;;;;;;;7.20;4.63;;;16.50;99.90;;;;;;4945672;28;20422;-62
2021/08/28 06:05:31;;;;;;;5.60;4.90;;;16.60;99.90;;;;;;4963523;28;20293;-62
2021/08/28 06:07:57;;;;;;;6.53;4.73;;;16.50;99.90;;;;;;4961426;28;20321;-62
2021/08/28 06:10:23;;;;;;;5.20;4.70;;;16.60;99.90;;;;;;4959731;28;20202;-62
2021/08/28 06:12:48;;;;;;;5.97;4.90;;;16.70;99.90;;;;;;4947916;28;20597;-63
2021/08/28 06:15:14;;;;;;;6.10;5.27;;;16.80;99.90;;;;;;4960127;28;20488;-62
2021/08/28 06:17:40;;;;;;;5.50;5.00;;;17.10;99.90;;;;;;4962009;28;20426;-62
2021/08/28 06:20:06;;;;;;;5.70;5.00;;;17.30;99.90;;;;;;4963469;28;20195;-64
2021/08/28 06:22:32;;;;;;;11.73;6.83;;;17.40;99.90;;;;;;4962681;28;20195;-63
2021/08/28 06:24:58;;;;;;;7.40;6.70;;;17.50;99.90;;;;;;4961934;28;20499;-63
2021/08/28 06:27:24;;;;;;;6.90;6.20;;;17.60;99.90;;;;;;4945142;28;20218;-64
2021/08/28 06:29:50;;;;;;;7.27;5.50;;;17.70;99.90;;;;;;4937658;28;20449;-64
2021/08/28 06:32:16;;;;;;;8.23;6.20;;;17.70;99.90;;;;;;4945688;28;20444;-63
2021/08/28 06:34:42;;;;;;;7.17;6.43;;;17.80;99.90;;;;;;4927183;28;20537;-63
2021/08/28 06:37:08;;;;;;;7.60;6.27;;;17.90;99.90;;;;;;4964684;28;20657;-63
2021/08/28 06:39:33;;;;;;;7.20;6.50;;;18.00;99.90;;;;;;4964705;28;20198;-64
2021/08/28 06:41:59;;;;;;;10.50;6.60;;;18.10;99.90;;;;;;4963516;28;20278;-63
2021/08/28 06:44:25;;;;;;;6.70;6.03;;;18.00;99.90;;;;;;4960612;28;20199;-65
2021/08/28 06:46:51;;;;;;;10.00;7.07;;;18.00;99.90;;;;;;4962396;28;20739;-63
2021/08/28 06:49:16;;;;;;;8.50;7.10;;;18.10;99.90;;;;;;4960807;28;20446;-63
2021/08/28 06:51:42;;;;;;;12.00;8.80;;;18.00;99.90;;;;;;4964055;28;20274;-63
2021/08/28 06:54:08;;;;;;;8.30;7.50;;;18.00;99.90;;;;;;4959832;28;20198;-63
2021/08/28 06:56:34;;;;;;;9.20;7.40;;;18.10;99.90;;;;;;4962367;28;20211;-64
2021/08/28 06:59:00;;;;;;;8.50;7.43;;;17.90;99.90;;;;;;4962711;28;20184;-64
2021/08/28 07:01:26;;;;;;;8.73;7.77;;;18.00;99.90;;;;;;4938646;28;20195;-63
2021/08/28 07:03:52;;;;;;;8.03;7.23;;;18.00;99.90;;;;;;4945925;28;20500;-64
2021/08/28 07:06:17;;;;;;;7.73;7.03;;;18.00;99.90;;;;;;4963750;28;20458;-64
2021/08/28 07:08:44;;;;;;;7.50;6.83;;;18.20;99.90;;;;;;4960987;28;20203;-64
2021/08/28 07:11:10;;;;;;;8.10;6.20;;;18.30;99.90;;;;;;4960407;28;20277;-64
2021/08/28 07:13:35;;;;;;;8.70;7.80;;;18.40;99.90;;;;;;4964534;28;20430;-65
2021/08/28 07:16:01;;;;;;;8.70;7.63;;;18.30;99.90;;;;;;4960380;28;20214;-66
2021/08/28 07:18:27;;;;;;;9.63;6.60;;;18.10;99.90;;;;;;4958027;28;20368;-65
2021/08/28 07:20:52;;;;;;;7.77;7.13;;;18.30;99.90;;;;;;4964685;28;20190;-64
2021/08/28 07:23:18;;;;;;;8.43;7.63;;;18.30;99.90;;;;;;4962819;28;20198;-64
2021/08/28 07:25:44;;;;;;;10.30;7.73;;;18.40;99.90;;;;;;4941736;28;20205;-64
2021/08/28 07:28:11;;;;;;;9.27;7.00;;;18.50;99.90;;;;;;4951267;28;20245;-67
2021/08/28 07:30:37;;;;;;;7.60;6.80;;;18.50;99.90;;;;;;4961693;28;20286;-64
2021/08/28 07:33:03;;;;;;;7.93;6.83;;;18.50;99.90;;;;;;4969045;28;20457;-64
2021/08/28 07:35:31;;;;;;;8.43;7.33;;;18.50;99.90;;;;;;4965455;28;20482;-64
2021/08/28 07:37:57;;;;;;;9.43;8.53;;;18.50;99.90;;;;;;4964444;28;20903;-64
2021/08/28 07:40:24;;;;;;;8.37;6.97;;;18.30;99.90;;;;;;4965779;28;20499;-64
2021/08/28 07:43:03;;;;;;;8.13;7.13;;;18.40;99.90;;;;;;4962627;28;20477;-64
2021/08/28 07:45:28;;;;;;;7.57;6.87;;;18.60;99.90;;;;;;4966638;28;20808;-64
2021/08/28 07:47:54;;;;;;;8.57;6.53;;;18.50;99.90;;;;;;4934154;28;20462;-64
2021/08/28 07:50:20;;;;;;;9.70;7.93;;;18.50;99.90;;;;;;4963353;28;20560;-65
2021/08/28 07:52:46;;;;;;;9.97;7.60;;;18.50;99.90;;;;;;4965155;28;20500;-65
2021/08/28 07:55:14;;;;;;;8.07;7.23;;;18.70;99.90;;;;;;4948436;28;20210;-65
2021/08/28 07:57:41;;;;;;;8.50;7.70;;;18.90;99.90;;;;;;4948076;28;20455;-65
2021/08/28 08:00:09;;;;;;;13.40;11.27;;;19.00;99.90;;;;;;4948562;28;20442;-64
2021/08/28 08:02:35;;;;;;;8.13;7.37;;;19.00;99.90;;;;;;4966015;28;20472;-64
2021/08/28 08:05:02;;;;;;;7.73;7.03;;;18.70;99.90;;;;;;4966471;28;20493;-64
2021/08/28 08:07:28;;;;;;;8.83;7.50;;;18.80;99.90;;;;;;4966007;28;21183;-65
2021/08/28 08:09:54;;;;;;;11.23;7.73;;;18.90;99.90;;;;;;4963214;28;20819;-64
2021/08/28 08:12:20;;;;;;;7.53;6.80;;;19.10;99.90;;;;;;4964149;28;20547;-64
2021/08/28 08:14:47;;;;;;;8.43;7.53;;;19.30;99.90;;;;;;4966658;28;20481;-64
2021/08/28 08:17:14;;;;;;;8.20;7.37;;;19.50;99.90;;;;;;4965450;28;20453;-64
2021/08/28 08:19:41;;;;;;;8.70;7.80;;;19.60;99.90;;;;;;4963230;28;20437;-64
2021/08/28 08:22:07;;;;;;;8.60;6.90;;;19.60;99.90;;;;;;4948374;28;20434;-64
2021/08/28 08:24:33;;;;;;;7.40;6.47;;;19.70;99.90;;;;;;4966648;28;20533;-64
2021/08/28 08:26:58;;;;;;;6.57;5.97;;;19.60;99.90;;;;;;4967290;28;20258;-65
2021/08/28 08:29:27;;;;;;;6.90;6.10;;;19.60;99.90;;;;;;4961693;28;20187;-64
2021/08/28 08:31:54;;;;;;;6.33;5.73;;;19.80;99.90;;;;;;4943544;28;20256;-65
2021/08/28 08:34:23;;;;;;;6.60;5.50;;;19.50;99.90;;;;;;4962404;28;20549;-64
2021/08/28 08:36:49;;;;;;;7.67;5.73;;;19.60;99.90;;;;;;4960351;28;20531;-65
2021/08/28 08:39:22;;;;;;;7.00;6.13;;;19.60;99.90;;;;;;4963708;28;20430;-64
2021/08/28 08:41:50;;;;;;;8.00;5.93;;;19.50;99.90;;;;;;4961811;28;20497;-64
2021/08/28 08:44:16;;;;;;;9.70;6.03;;;19.60;99.90;;;;;;4945460;28;21003;-64
2021/08/28 08:46:44;;;;;;;5.60;4.60;;;19.70;99.90;;;;;;4962461;28;20492;-64
2021/08/28 08:49:12;;;;;;;5.80;5.30;;;19.60;99.90;;;;;;4956484;28;20504;-64
2021/08/28 08:51:40;;;;;;;7.27;5.10;;;19.50;99.90;;;;;;4962462;28;20446;-65
2021/08/28 08:54:06;;;;;;;4.80;4.30;;;19.30;99.90;;;;;;4967022;28;20422;-66
2021/08/28 08:56:33;;;;;;;6.10;5.60;;;19.20;99.90;;;;;;4962301;28;21060;-65
2021/08/28 08:59:00;;;;;;;6.13;5.00;;;19.00;99.90;;;;;;4943164;28;20579;-65
2021/08/28 09:01:26;;;;;;;6.40;5.27;;;19.00;99.90;;;;;;4963636;28;20448;-65
2021/08/28 09:03:54;;;;;;;8.37;6.60;;;18.90;99.90;;;;;;4965421;28;20434;-65
2021/08/28 09:06:23;;;;;;;7.60;6.60;;;18.50;99.90;;;;;;4964816;28;20862;-65
2021/08/28 09:08:49;;;;;;;6.77;6.17;;;18.50;99.90;;;;;;4946068;28;20980;-66
2021/08/28 09:11:26;;;;;;;7.77;6.97;;;18.60;99.90;;;;;;4945087;28;20438;-66
2021/08/28 09:14:16;;;;;;;7.17;6.57;;;18.30;99.90;;;;;;4949199;28;20448;-67
2021/08/28 09:16:45;;;;;;;6.93;6.23;;;18.40;99.90;;;;;;4957454;28;20502;-65
2021/08/28 09:19:11;;;;;;;7.10;6.40;;;18.50;99.90;;;;;;4959517;28;20442;-65
2021/08/28 09:21:37;;;;;;;7.97;7.17;;;18.40;99.90;;;;;;4947605;28;20508;-65
2021/08/28 09:24:06;;;;;;;7.57;6.77;;;18.60;99.90;;;;;;4959645;28;20249;-65
2021/08/28 09:26:38;;;;;;;6.80;6.10;;;18.70;99.90;;;;;;4964549;28;20520;-65
2021/08/28 09:29:06;;;;;;;7.57;6.60;;;18.60;99.90;;;;;;4963818;28;20457;-65
2021/08/28 09:31:35;;;;;;;7.53;6.20;;;18.40;99.90;;;;;;4961269;28;20497;-66
2021/08/28 09:34:20;;;;;;;5.77;5.27;;;18.40;99.90;;;;;;4964054;28;20932;-66
2021/08/28 09:37:07;;;;;;;6.47;5.87;;;18.10;99.90;;;;;;4960868;28;20481;-66
2021/08/28 09:39:50;;;;;;;8.87;5.77;;;18.00;99.90;;;;;;4960381;28;20940;-66
2021/08/28 09:42:22;;;;;;;6.80;6.10;;;17.90;99.90;;;;;;4963772;28;20450;-65
2021/08/28 09:44:49;;;;;;;7.80;6.77;;;17.70;99.90;;;;;;4962278;28;20435;-66
2021/08/28 09:47:17;;;;;;;8.30;6.50;;;17.90;99.90;;;;;;4961910;28;20455;-65
2021/08/28 09:49:45;;;;;;;5.40;4.90;;;18.00;99.90;;;;;;4959971;28;20457;-65
2021/08/28 09:52:15;;;;;;;6.50;5.27;;;17.90;99.90;;;;;;4960090;28;20867;-65
2021/08/28 09:54:42;;;;;;;5.40;4.30;;;18.00;99.90;;;;;;4961759;28;20511;-65
2021/08/28 09:57:08;;;;;;;5.97;4.87;;;17.90;99.90;;;;;;4964056;28;20497;-65
2021/08/28 09:59:34;;;;;;;6.23;4.60;;;17.70;99.90;;;;;;4960947;28;20500;-65
2021/08/28 10:02:10;;;;;;;5.93;4.43;;;17.80;99.90;;;;;;4962787;28;20942;-65
2021/08/28 10:04:50;;;;;;;5.40;4.20;;;17.70;99.90;;;;;;4959759;28;20465;-65
2021/08/28 10:07:28;;;;;;;4.73;4.07;;;17.30;99.90;;;;;;4957831;28;20488;-65
2021/08/28 10:09:58;;;;;;;4.10;3.70;;;17.20;99.90;;;;;;4961593;28;20433;-65
2021/08/28 10:12:25;;;;;;;6.83;4.70;;;17.40;99.90;;;;;;4957387;28;20565;-65
2021/08/28 10:14:55;;;;;;;4.40;4.00;;;17.60;99.90;;;;;;4955277;28;20541;-66
2021/08/28 10:17:22;;;;;;;4.63;4.23;;;17.50;99.90;;;;;;4959403;28;20465;-65
2021/08/28 10:19:50;;;;;;;8.10;5.47;;;17.20;99.90;;;;;;4961294;28;20480;-65
2021/08/28 10:22:21;;;;;;;5.83;4.97;;;17.20;99.90;;;;;;4944819;28;20481;-66
2021/08/28 10:24:49;;;;;;;6.17;5.57;;;17.50;99.90;;;;;;4964344;28;20466;-65
2021/08/28 10:27:16;;;;;;;7.50;6.70;;;17.60;99.90;;;;;;4943666;28;20449;-66
2021/08/28 10:29:42;;;;;;;6.30;5.67;;;17.50;99.90;;;;;;4961709;28;20820;-66
2021/08/28 10:32:11;;;;;;;6.43;5.80;;;17.40;99.90;;;;;;4962441;28;20792;-66
2021/08/28 10:34:38;;;;;;;7.83;6.60;;;17.70;99.90;;;;;;4943776;28;20496;-66
2021/08/28 10:37:04;;;;;;;8.43;7.53;;;17.70;99.90;;;;;;4946490;28;20462;-66
2021/08/28 10:39:30;;;;;;;8.17;6.33;;;17.60;99.90;;;;;;4941054;28;20438;-66
2021/08/28 10:41:56;;;;;;;7.13;6.43;;;17.80;99.90;;;;;;4962445;28;20435;-66
2021/08/28 10:44:23;;;;;;;7.33;6.23;;;18.10;99.90;;;;;;4944966;28;20202;-66
2021/08/28 10:46:48;;;;;;;8.13;6.47;;;17.70;99.90;;;;;;4962998;28;20881;-66
2021/08/28 10:49:15;;;;;;;7.43;6.47;;;18.00;99.90;;;;;;4960565;28;20478;-66
2021/08/28 10:51:42;;;;;;;6.50;5.53;;;18.20;99.90;;;;;;4965851;28;20293;-66
2021/08/28 10:54:10;;;;;;;7.83;6.40;;;17.90;99.90;;;;;;4961806;28;20462;-66
2021/08/28 10:56:52;;;;;;;6.80;6.10;;;17.90;99.90;;;;;;4965941;28;20485;-66
2021/08/28 10:59:36;;;;;;;8.03;5.90;;;17.90;99.90;;;;;;4964835;28;20441;-66
2021/08/28 11:02:11;;;;;;;7.37;6.60;;;18.20;99.90;;;;;;4946975;28;21038;-66
2021/08/28 11:04:40;;;;;;;7.13;6.13;;;18.10;99.90;;;;;;4965900;28;20482;-66
2021/08/28 11:07:41;;;;;;;7.60;6.90;;;18.30;99.90;;;;;;4966186;28;20468;-66
2021/08/28 11:10:09;;;;;;;8.03;7.23;;;18.40;99.90;;;;;;4965057;28;20430;-66
2021/08/28 11:12:48;;;;;;;6.70;6.10;;;18.20;99.90;;;;;;4968204;28;20452;-66
2021/08/28 11:15:43;;;;;;;6.07;5.47;;;18.00;99.90;;;;;;4966710;28;20477;-66
2021/08/28 11:18:42;;;;;;;8.03;5.77;;;17.80;99.90;;;;;;4944496;28;20462;-66
2021/08/28 11:21:10;;;;;;;6.43;5.40;;;17.90;99.90;;;;;;4966405;28;20825;-66
2021/08/28 11:23:40;;;;;;;5.70;5.00;;;17.80;99.90;;;;;;4952173;28;20432;-66
2021/08/28 11:26:06;;;;;;;4.97;4.57;;;17.70;99.90;;;;;;4963279;28;20473;-66
2021/08/28 11:28:44;;;;;;;6.40;5.80;;;17.50;99.90;;;;;;4935042;28;20454;-66
2021/08/28 11:31:10;;;;;;;5.93;5.00;;;17.60;99.90;;;;;;4968960;28;20418;-66
2021/08/28 11:33:37;;;;;;;5.03;4.53;;;17.60;99.90;;;;;;4947294;28;20449;-66
2021/08/28 11:36:07;;;;;;;6.60;4.87;;;17.50;99.90;;;;;;4966999;28;20519;-66
2021/08/28 11:38:50;;;;;;;6.13;5.00;;;17.40;99.90;;;;;;4966515;28;20792;-66
2021/08/28 11:41:24;;;;;;;5.37;4.83;;;17.40;99.90;;;;;;4961605;28;20425;-66
2021/08/28 11:43:51;;;;;;;6.23;5.53;;;17.40;99.90;;;;;;4966914;28;20438;-66
2021/08/28 11:46:22;;;;;;;4.70;4.30;;;17.40;99.90;;;;;;4965980;28;20600;-66
2021/08/28 11:48:48;;;;;;;5.77;4.20;;;17.40;99.90;;;;;;4965358;28;20465;-66
2021/08/28 11:51:17;;;;;;;5.27;4.77;;;17.60;99.90;;;;;;4967228;28;20450;-66
2021/08/28 11:53:45;;;;;;;6.87;5.20;;;17.90;99.90;;;;;;4950371;28;20482;-66
2021/08/28 11:56:13;;;;;;;5.93;5.33;;;17.80;99.90;;;;;;4964192;28;20481;-66
2021/08/28 11:58:55;;;;;;;6.30;5.00;;;18.00;99.90;;;;;;4964127;28;20528;-65
2021/08/28 12:01:30;;;;;;;6.30;5.30;;;17.90;99.90;;;;;;4966585;28;21152;-65
2021/08/28 12:04:07;;;;;;;6.30;5.70;;;17.70;99.90;;;;;;4962532;28;21018;-66
2021/08/28 12:06:35;;;;;;;5.93;5.43;;;17.90;99.90;;;;;;4962855;28;20917;-65
2021/08/28 12:09:03;;;;;;;5.20;4.70;;;17.90;99.90;;;;;;4946979;28;20442;-65
2021/08/28 12:11:29;;;;;;;5.33;4.87;;;17.80;99.90;;;;;;4963038;28;20901;-65
2021/08/28 12:14:00;;;;;;;5.93;5.33;;;17.70;99.90;;;;;;4963976;28;20458;-64
2021/08/28 12:16:27;;;;;;;4.93;4.53;;;17.70;99.90;;;;;;4960247;28;20525;-64
2021/08/28 12:19:01;;;;;;;4.53;3.90;;;17.60;99.90;;;;;;4963361;28;20990;-65
2021/08/28 12:21:29;;;;;;;5.20;4.70;;;17.60;99.90;;;;;;4965737;28;21156;-65
2021/08/28 12:23:54;;;;;;;6.50;5.60;;;17.70;99.90;;;;;;4962592;28;20520;-65
2021/08/28 12:26:22;;;;;;;5.50;5.00;;;17.80;99.90;;;;;;4967334;28;21288;-65
2021/08/28 12:28:48;;;;;;;6.00;4.70;;;17.80;99.90;;;;;;4947454;28;20214;-65
2021/08/28 12:31:16;;;;;;;4.10;3.70;;;17.70;99.90;;;;;;4958425;28;20453;-65
2021/08/28 12:33:42;;;;;;;4.90;4.50;;;17.70;99.90;;;;;;4964403;28;20435;-65
2021/08/28 12:36:32;;;;;;;5.13;4.30;;;17.60;99.90;;;;;;4963475;28;20483;-60
2021/08/28 12:39:06;;;;;;;4.80;4.40;;;17.50;99.90;;;;;;4941368;28;20197;-61
2021/08/28 12:41:33;;;;;;;5.77;4.40;;;17.50;99.90;;;;;;4961893;28;20441;-60
2021/08/28 12:43:59;;;;;;;5.27;4.60;;;17.60;99.90;;;;;;4963035;28;20452;-60
2021/08/28 12:46:25;;;;;;;4.53;4.13;;;17.80;99.90;;;;;;4962954;28;20485;-59
2021/08/28 12:49:09;;;;;;;4.17;3.50;;;17.90;99.90;;;;;;4966847;28;20440;-60
2021/08/28 12:51:35;;;;;;;4.43;3.80;;;18.00;99.90;;;;;;4963219;28;20791;-60